0TS4 weather

Ullrich Airport
Ledbetter, Texas, United States

Public forecast

Using degrees Fahrenheit for public forecast. Weather courtesy of forecast.io.

Closest aviation weather report (METAR) to Ullrich Airport

Closest report is Giddings-Lee County Airport, 10.7 nm (19.8 km) WNW. Retrieved 2020/08/06 00:35 UTC (18 minutes ago):

KGYB 060035Z AUTO 18007KT 10SM CLR 36/20 A2991 RMK AO2 T03570196

Closest aviation forecast (TAF) to Ullrich Airport

Closest forecast is Easterwood Field, 37.3 nm (69.0 km) NE. Retrieved 2020-08-06 00:42 UTC (11 minutes ago):

TAF KCLL 052340Z 0600/0624 20006KT P6SM SKC FM061200 17004KT P6SM FEW150 FM061500 19008KT P6SM FEW035